Aviation Digital Data Service (ADDS)

Output produced by METARs form (0140 UTC 22 February 2019)
found at http://www.aviationweather.gov/metar/data/
 
Forecast for: CYKF (WATERLOO WELL , ON, CA)
Text: TAF CYKF 220138Z 2202/2214 28010KT P6SM SCT040 BKN240
Forecast period: 0200 to 0700 UTC 22 February 2019
Forecast type: FROM: standard forecast or significant change
Winds: from the W (280 degrees) at 12 MPH (10 knots; 5.1 m/s)
Visibility: 6 or more miles 10+ km)
Ceiling: 24000 feet AGL
Clouds: scattered clouds at 4000 feet AGL
broken clouds at 24000 feet AGL
Weather: no significant weather forecast for this period
Text: FM220700 28005KT P6SM FEW008
Forecast period: 0700 to 0800 UTC 22 February 2019
Forecast type: FROM: standard forecast or significant change
Winds: from the W (280 degrees) at 6 MPH (5 knots; 2.6 m/s)
Visibility: 6 or more miles 10+ km)
Ceiling: at least 12,000 feet AGL
Clouds: few clouds at 800 feet AGL
Weather: no significant weather forecast for this period
Text: BECMG 2208/2210 VRB03KT RMK FCST BASED ON AUTO OBS. NXT FCST BY 220800Z
Forecast period: 0800 to 1400 UTC 22 February 2019
Forecast type: BECOMING: Conditions expected to become as follows by 1000 UTC 22 February 2019
Winds: variable direction winds at 3 MPH (3 knots; 1.5 m/s)
Visibility: 6 or more miles 10+ km)
Ceiling: at least 12,000 feet AGL
Clouds: few clouds at 800 feet AGL
Weather: no significant weather forecast for this period